createdAt,value
2018-10-07T00:00:51.339Z,15.50
2018-10-07T00:03:25.835Z,15.50
2018-10-07T00:06:00.489Z,15.40
2018-10-07T00:08:34.890Z,15.40
2018-10-07T00:11:09.536Z,15.40
2018-10-07T00:13:44.264Z,15.40
2018-10-07T00:16:18.894Z,15.40
2018-10-07T00:18:53.585Z,15.30
2018-10-07T00:21:28.106Z,15.30
2018-10-07T00:24:02.812Z,15.30
2018-10-07T00:26:37.376Z,15.30
2018-10-07T00:29:12.184Z,15.30
2018-10-07T00:31:52.710Z,15.20
2018-10-07T00:34:28.041Z,15.30
2018-10-07T00:37:02.154Z,15.20
2018-10-07T00:39:36.660Z,15.20
2018-10-07T00:42:11.643Z,15.20
2018-10-07T00:44:45.861Z,15.20
2018-10-07T00:47:20.511Z,15.20
2018-10-07T00:49:55.164Z,15.20
2018-10-07T00:52:29.742Z,15.20
2018-10-07T00:55:04.364Z,15.20
2018-10-07T00:57:38.830Z,15.10
2018-10-07T01:00:13.306Z,15.10
2018-10-07T01:02:48.148Z,15.10
2018-10-07T01:05:22.730Z,15.10
2018-10-07T01:07:57.026Z,15.10
2018-10-07T01:10:31.596Z,15.10
2018-10-07T01:13:06.306Z,15.00
2018-10-07T01:15:41.050Z,15.10
2018-10-07T01:18:15.247Z,15.10
2018-10-07T01:20:50.194Z,15.00
2018-10-07T01:23:24.713Z,15.00
2018-10-07T01:25:59.092Z,15.00
2018-10-07T01:28:33.850Z,15.00
2018-10-07T01:31:08.413Z,15.00
2018-10-07T01:33:42.989Z,15.00
2018-10-07T01:36:18.068Z,15.00
2018-10-07T01:38:52.185Z,15.00
2018-10-07T01:41:26.680Z,15.00
2018-10-07T01:44:01.443Z,15.00
2018-10-07T01:46:35.882Z,15.00
2018-10-07T01:49:10.384Z,15.00
2018-10-07T01:51:44.964Z,15.00
2018-10-07T01:54:19.556Z,15.00
2018-10-07T01:56:54.090Z,14.90
2018-10-07T01:59:28.933Z,14.90
2018-10-07T02:02:03.312Z,14.90
2018-10-07T02:04:37.914Z,14.90
2018-10-07T02:07:12.586Z,14.90
2018-10-07T02:09:47.461Z,14.90
2018-10-07T02:12:21.920Z,14.90
2018-10-07T02:14:56.366Z,14.90
2018-10-07T02:17:30.995Z,14.80
2018-10-07T02:20:05.607Z,14.80
2018-10-07T02:22:40.252Z,14.80
2018-10-07T02:25:14.486Z,14.80
2018-10-07T02:27:49.145Z,14.80
2018-10-07T02:30:23.743Z,14.90
2018-10-07T02:32:58.625Z,14.80
2018-10-07T02:35:33.145Z,14.80
2018-10-07T02:38:07.625Z,14.80
2018-10-07T02:40:42.821Z,14.80
2018-10-07T02:43:17.012Z,14.70
2018-10-07T02:45:51.870Z,14.70
2018-10-07T02:48:26.985Z,14.70
2018-10-07T02:51:01.882Z,14.70
2018-10-07T02:53:36.321Z,14.70
2018-10-07T02:56:10.908Z,14.70
2018-10-07T02:58:45.798Z,14.70
2018-10-07T03:01:20.185Z,14.70
2018-10-07T03:03:54.647Z,14.70
2018-10-07T03:06:29.306Z,14.70
2018-10-07T03:09:05.173Z,14.70
2018-10-07T03:11:39.652Z,14.70
2018-10-07T03:14:13.960Z,14.70
2018-10-07T03:16:48.776Z,14.70
2018-10-07T03:19:23.146Z,14.70
2018-10-07T03:21:57.743Z,14.70
2018-10-07T03:24:32.496Z,14.70
2018-10-07T03:27:07.313Z,14.60
2018-10-07T03:29:41.571Z,14.70
2018-10-07T03:32:16.227Z,14.70
2018-10-07T03:34:50.609Z,14.70
2018-10-07T03:37:25.398Z,14.70
2018-10-07T03:39:59.508Z,14.60
2018-10-07T03:42:34.368Z,14.60
2018-10-07T03:45:08.682Z,14.60
2018-10-07T03:47:43.197Z,14.60
2018-10-07T03:50:17.717Z,14.50
2018-10-07T03:52:52.363Z,14.50
2018-10-07T03:55:27.043Z,14.50
2018-10-07T03:58:01.568Z,14.50
2018-10-07T04:00:36.176Z,14.50
2018-10-07T04:03:10.972Z,14.50
2018-10-07T04:05:45.526Z,14.50
2018-10-07T04:08:19.932Z,14.50
2018-10-07T04:10:54.592Z,14.50
2018-10-07T04:13:29.305Z,14.50
2018-10-07T04:16:04.034Z,14.50
2018-10-07T04:18:38.851Z,14.50
2018-10-07T04:21:13.195Z,14.50
2018-10-07T04:23:47.884Z,14.40
2018-10-07T04:26:22.284Z,14.40
2018-10-07T04:28:57.014Z,14.40
2018-10-07T04:31:31.519Z,14.40
2018-10-07T04:34:06.189Z,14.40
2018-10-07T04:36:40.854Z,14.40
2018-10-07T04:39:15.892Z,14.40
2018-10-07T04:41:50.972Z,14.40
2018-10-07T04:44:25.534Z,14.30
2018-10-07T04:47:00.014Z,14.30
2018-10-07T04:49:34.726Z,14.30
2018-10-07T04:52:09.081Z,14.40
2018-10-07T04:54:43.829Z,14.40
2018-10-07T04:57:18.441Z,14.30
2018-10-07T04:59:53.081Z,14.40
2018-10-07T05:02:27.688Z,14.30
2018-10-07T05:05:02.273Z,14.30
2018-10-07T05:07:37.070Z,14.30
2018-10-07T05:10:56.720Z,14.30
2018-10-07T05:13:53.044Z,14.30
2018-10-07T05:16:35.877Z,14.30
2018-10-07T05:19:10.289Z,14.30
2018-10-07T05:21:44.973Z,14.30
2018-10-07T05:24:19.528Z,14.30
2018-10-07T05:26:53.996Z,14.30
2018-10-07T05:29:28.468Z,14.30
2018-10-07T05:32:03.154Z,14.30
2018-10-07T05:34:38.129Z,14.30
2018-10-07T05:37:13.178Z,14.30
2018-10-07T05:39:47.796Z,14.30
2018-10-07T05:42:22.658Z,14.30
2018-10-07T05:44:57.114Z,14.30
2018-10-07T05:47:31.596Z,14.30
2018-10-07T05:50:06.121Z,14.30
2018-10-07T05:52:40.927Z,14.30
2018-10-07T05:55:15.560Z,14.30
2018-10-07T05:57:55.569Z,14.30
2018-10-07T06:00:30.897Z,14.30
2018-10-07T06:03:17.762Z,14.30
2018-10-07T06:05:52.565Z,14.30
2018-10-07T06:08:27.899Z,14.50
2018-10-07T06:11:02.234Z,14.40
2018-10-07T06:13:36.545Z,14.50
2018-10-07T06:16:11.381Z,14.70
2018-10-07T06:18:45.929Z,14.90
2018-10-07T06:21:20.737Z,15.00
2018-10-07T06:23:55.205Z,15.10
2018-10-07T06:26:29.874Z,15.20
2018-10-07T06:29:04.398Z,15.10
2018-10-07T06:31:39.185Z,15.20
2018-10-07T06:34:14.066Z,15.30
2018-10-07T06:36:49.299Z,15.30
2018-10-07T06:39:24.085Z,15.30
2018-10-07T06:41:59.324Z,15.40
2018-10-07T06:44:33.873Z,15.50
2018-10-07T06:47:08.479Z,15.70
2018-10-07T06:49:43.122Z,15.80
2018-10-07T06:52:17.675Z,15.90
2018-10-07T06:54:52.306Z,16.00
2018-10-07T06:57:26.826Z,16.00
2018-10-07T07:00:01.863Z,16.10
2018-10-07T07:02:37.027Z,16.20
2018-10-07T07:05:11.819Z,16.30
2018-10-07T07:07:46.114Z,16.30
2018-10-07T07:10:20.530Z,16.40
2018-10-07T07:12:55.176Z,16.40
2018-10-07T07:15:29.926Z,16.50
2018-10-07T07:18:05.025Z,16.50
2018-10-07T07:20:39.590Z,16.60
2018-10-07T07:23:14.214Z,16.60
2018-10-07T07:25:49.096Z,16.60
2018-10-07T07:28:23.704Z,16.60
2018-10-07T07:30:58.640Z,16.60
2018-10-07T07:33:33.297Z,16.70
2018-10-07T07:36:07.958Z,16.70
2018-10-07T07:38:42.649Z,16.70
2018-10-07T07:41:17.251Z,16.70
2018-10-07T07:43:51.749Z,16.70
2018-10-07T07:46:26.419Z,16.80
2018-10-07T07:49:00.995Z,16.90
2018-10-07T07:51:35.862Z,16.90
2018-10-07T07:54:10.686Z,17.00
2018-10-07T07:56:45.227Z,17.00
2018-10-07T07:59:19.853Z,17.10
2018-10-07T08:01:54.373Z,17.20
2018-10-07T08:04:29.122Z,17.30
2018-10-07T08:07:03.742Z,17.40
2018-10-07T08:09:38.479Z,17.50
2018-10-07T08:12:13.009Z,17.60
2018-10-07T08:14:47.749Z,17.70
2018-10-07T08:17:22.592Z,17.80
2018-10-07T08:19:57.009Z,17.80
2018-10-07T08:22:31.714Z,17.90
2018-10-07T08:25:06.380Z,17.90
2018-10-07T08:27:40.869Z,18.00
2018-10-07T08:30:15.345Z,18.00
2018-10-07T08:32:49.951Z,18.00
2018-10-07T08:35:24.495Z,17.90
2018-10-07T08:37:59.466Z,18.00
2018-10-07T08:40:33.898Z,17.90
2018-10-07T08:43:08.405Z,17.90
2018-10-07T08:45:43.297Z,17.90
2018-10-07T08:48:17.600Z,18.00
2018-10-07T08:50:52.092Z,18.00
2018-10-07T08:53:26.610Z,18.10
2018-10-07T08:56:01.474Z,18.20
2018-10-07T08:58:35.792Z,18.20
2018-10-07T09:01:10.385Z,18.30
2018-10-07T09:03:45.418Z,18.50
2018-10-07T09:06:20.242Z,18.60
2018-10-07T09:08:54.831Z,18.70
2018-10-07T09:11:29.395Z,18.80
2018-10-07T09:14:04.228Z,18.90
2018-10-07T09:16:38.342Z,19.10
2018-10-07T09:19:12.890Z,19.20
2018-10-07T09:21:47.591Z,19.40
2018-10-07T09:24:22.233Z,19.50
2018-10-07T09:26:56.720Z,19.60
2018-10-07T09:29:31.859Z,19.70
2018-10-07T09:32:07.342Z,19.70
2018-10-07T09:34:41.685Z,19.70
2018-10-07T09:37:16.275Z,19.70
2018-10-07T09:39:51.095Z,19.70
2018-10-07T09:42:26.033Z,19.70
2018-10-07T09:45:01.127Z,19.80
2018-10-07T09:47:35.941Z,19.80
2018-10-07T09:50:10.725Z,19.90
2018-10-07T09:52:45.068Z,20.00
2018-10-07T09:55:19.708Z,20.00
2018-10-07T09:57:54.288Z,20.00
2018-10-07T10:00:34.641Z,20.00
2018-10-07T10:03:11.243Z,20.00
2018-10-07T10:05:46.305Z,20.10
2018-10-07T10:08:20.892Z,20.10
2018-10-07T10:10:55.601Z,20.10
2018-10-07T10:13:30.216Z,20.10
2018-10-07T10:16:05.037Z,20.10
2018-10-07T10:18:48.882Z,20.20
2018-10-07T10:21:43.322Z,20.10
2018-10-07T10:24:30.403Z,20.10
2018-10-07T10:27:53.013Z,20.20
2018-10-07T10:30:41.847Z,20.20
2018-10-07T10:33:25.098Z,20.10
2018-10-07T10:36:25.561Z,20.10
2018-10-07T10:39:11.554Z,20.10
2018-10-07T10:41:54.211Z,20.00
2018-10-07T10:45:01.291Z,20.00
2018-10-07T10:47:41.649Z,19.90
2018-10-07T10:50:37.350Z,19.90
2018-10-07T10:53:26.985Z,19.90
2018-10-07T10:56:16.678Z,19.90
2018-10-07T10:59:11.443Z,19.90
2018-10-07T11:02:29.531Z,19.90
2018-10-07T11:05:34.172Z,19.90
2018-10-07T11:11:38.578Z,19.90
2018-10-07T11:15:42.876Z,19.90
2018-10-07T11:19:30.114Z,19.90
2018-10-07T11:23:55.306Z,19.90
2018-10-07T11:27:16.111Z,20.00
2018-10-07T11:30:02.532Z,20.10
2018-10-07T11:32:48.516Z,20.20
2018-10-07T11:36:53.937Z,20.30
2018-10-07T11:39:46.298Z,20.40
2018-10-07T11:42:30.835Z,20.40
2018-10-07T11:45:21.789Z,20.40
2018-10-07T11:49:18.034Z,20.40
2018-10-07T11:52:16.703Z,20.40
2018-10-07T11:54:52.320Z,20.40
2018-10-07T11:57:28.106Z,20.40
2018-10-07T12:00:03.153Z,20.40
2018-10-07T12:02:37.787Z,20.40
2018-10-07T12:05:12.314Z,20.50
2018-10-07T12:07:47.005Z,20.40
2018-10-07T12:10:21.891Z,20.40
2018-10-07T12:12:57.094Z,20.40
2018-10-07T12:15:32.364Z,20.30
2018-10-07T12:18:07.499Z,20.40
2018-10-07T12:20:42.015Z,20.40
2018-10-07T12:23:16.888Z,20.40
2018-10-07T12:25:51.321Z,20.40
2018-10-07T12:28:28.494Z,20.40
2018-10-07T12:31:03.598Z,20.40
2018-10-07T12:33:38.633Z,20.30
2018-10-07T12:36:13.076Z,20.30
2018-10-07T12:38:47.913Z,20.30
2018-10-07T12:41:22.534Z,20.30
2018-10-07T12:43:57.229Z,20.30
2018-10-07T12:46:32.162Z,20.30
2018-10-07T12:49:07.080Z,20.30
2018-10-07T12:51:41.770Z,20.30
2018-10-07T12:54:16.704Z,20.20
2018-10-07T12:56:51.192Z,20.20
2018-10-07T12:59:26.013Z,20.20
2018-10-07T13:02:00.773Z,20.20
2018-10-07T13:04:35.535Z,20.20
2018-10-07T13:07:10.177Z,20.20
2018-10-07T13:09:44.779Z,20.20
2018-10-07T13:12:19.504Z,20.20
2018-10-07T13:14:54.223Z,20.20
2018-10-07T13:17:28.726Z,20.20
2018-10-07T13:20:03.719Z,20.20
2018-10-07T13:22:38.164Z,20.20
2018-10-07T13:25:12.600Z,20.20
2018-10-07T13:27:47.271Z,20.20
2018-10-07T13:30:21.946Z,20.10
2018-10-07T13:32:56.705Z,20.10
2018-10-07T13:35:31.555Z,20.20
2018-10-07T13:38:06.019Z,20.10
2018-10-07T13:40:40.648Z,20.10
2018-10-07T13:43:15.343Z,20.10
2018-10-07T13:45:50.257Z,20.10
2018-10-07T13:48:24.838Z,20.10
2018-10-07T13:50:59.770Z,20.10
2018-10-07T13:53:34.307Z,20.00
2018-10-07T13:56:09.293Z,20.00
2018-10-07T13:58:43.819Z,20.00
2018-10-07T14:01:18.699Z,20.20
2018-10-07T14:03:53.447Z,20.00
2018-10-07T14:06:28.434Z,20.00
2018-10-07T14:09:05.050Z,20.00
2018-10-07T14:11:39.358Z,20.00
2018-10-07T14:14:14.028Z,20.00
2018-10-07T14:16:49.053Z,19.90
2018-10-07T14:19:23.502Z,19.90
2018-10-07T14:21:58.985Z,19.80
2018-10-07T14:24:34.152Z,19.80
2018-10-07T14:27:08.956Z,19.80
2018-10-07T14:29:43.523Z,19.70
2018-10-07T14:32:18.178Z,19.70
2018-10-07T14:34:52.886Z,19.70
2018-10-07T14:37:27.841Z,19.60
2018-10-07T14:40:02.545Z,19.60
2018-10-07T14:42:36.928Z,19.50
2018-10-07T14:45:14.968Z,19.50
2018-10-07T14:47:49.486Z,19.50
2018-10-07T14:50:24.138Z,19.40
2018-10-07T14:52:58.597Z,19.40
2018-10-07T14:55:33.414Z,19.30
2018-10-07T14:58:08.029Z,19.30
2018-10-07T15:00:42.759Z,19.30
2018-10-07T15:03:17.593Z,19.20
2018-10-07T15:05:52.105Z,19.10
2018-10-07T15:08:27.162Z,19.10
2018-10-07T15:11:01.730Z,19.10
2018-10-07T15:13:36.561Z,19.00
2018-10-07T15:16:11.336Z,19.00
2018-10-07T15:18:45.962Z,19.00
2018-10-07T15:21:20.639Z,19.00
2018-10-07T15:23:55.293Z,18.90
2018-10-07T15:26:30.163Z,18.90
2018-10-07T15:29:04.958Z,18.90
2018-10-07T15:31:39.277Z,18.90
2018-10-07T15:34:14.231Z,18.80
2018-10-07T15:36:48.773Z,18.80
2018-10-07T15:39:23.511Z,18.80
2018-10-07T15:41:58.310Z,18.80
2018-10-07T15:44:32.979Z,18.70
2018-10-07T15:47:07.592Z,18.70
2018-10-07T15:49:42.216Z,18.60
2018-10-07T15:52:16.872Z,18.60
2018-10-07T15:54:51.697Z,18.60
2018-10-07T15:57:26.311Z,18.60
2018-10-07T16:00:01.090Z,18.60
2018-10-07T16:02:35.476Z,18.50
2018-10-07T16:05:10.488Z,18.50
2018-10-07T16:07:44.829Z,18.50
2018-10-07T16:10:19.725Z,18.40
2018-10-07T16:12:54.452Z,18.40
2018-10-07T16:15:29.270Z,18.40
2018-10-07T16:18:04.297Z,18.30
2018-10-07T16:20:38.722Z,18.30
2018-10-07T16:23:13.440Z,18.20
2018-10-07T16:25:48.113Z,18.20
2018-10-07T16:28:22.854Z,18.20
2018-10-07T16:30:57.818Z,18.20
2018-10-07T16:33:32.033Z,18.10
2018-10-07T16:36:06.925Z,18.10
2018-10-07T16:38:41.598Z,18.10
2018-10-07T16:41:16.289Z,18.00
2018-10-07T16:43:51.682Z,18.00
2018-10-07T16:46:26.481Z,18.00
2018-10-07T16:49:01.242Z,17.90
2018-10-07T16:51:35.918Z,17.80
2018-10-07T16:54:10.314Z,17.80
2018-10-07T16:56:45.010Z,17.70
2018-10-07T16:59:19.433Z,17.60
2018-10-07T17:01:54.054Z,17.60
2018-10-07T17:04:28.644Z,17.50
2018-10-07T17:07:03.301Z,17.40
2018-10-07T17:09:38.133Z,17.40
2018-10-07T17:12:12.861Z,17.30
2018-10-07T17:14:47.434Z,17.20
2018-10-07T17:17:21.998Z,17.10
2018-10-07T17:19:56.687Z,17.00
2018-10-07T17:22:31.557Z,17.00
2018-10-07T17:25:06.203Z,16.90
2018-10-07T17:27:40.564Z,16.90
2018-10-07T17:30:15.757Z,16.80
2018-10-07T17:32:50.466Z,16.80
2018-10-07T17:35:25.140Z,16.70
2018-10-07T17:38:00.704Z,16.70
2018-10-07T17:40:35.201Z,16.60
2018-10-07T17:43:09.469Z,16.60
2018-10-07T17:45:44.241Z,16.50
2018-10-07T17:48:19.170Z,16.40
2018-10-07T17:50:53.565Z,16.40
2018-10-07T17:53:28.425Z,16.30
2018-10-07T17:56:03.079Z,16.20
2018-10-07T17:58:37.546Z,16.20
2018-10-07T18:01:12.179Z,16.10
2018-10-07T18:03:46.821Z,16.10
2018-10-07T18:06:22.065Z,16.00
2018-10-07T18:08:56.917Z,16.00
2018-10-07T18:11:31.871Z,15.90
2018-10-07T18:14:06.241Z,15.90
2018-10-07T18:16:40.837Z,15.90
2018-10-07T18:19:15.498Z,15.80
2018-10-07T18:21:50.623Z,15.80
2018-10-07T18:24:25.036Z,15.70
2018-10-07T18:26:59.525Z,15.60
2018-10-07T18:29:34.375Z,15.60
2018-10-07T18:32:09.703Z,15.50
2018-10-07T18:34:45.294Z,15.40
2018-10-07T18:37:21.494Z,15.40
2018-10-07T18:39:56.869Z,15.30
2018-10-07T18:42:32.085Z,15.20
2018-10-07T18:45:08.501Z,15.20
2018-10-07T18:47:43.990Z,15.10
2018-10-07T18:50:20.332Z,15.10
2018-10-07T18:52:55.958Z,15.10
2018-10-07T18:55:31.953Z,15.00
2018-10-07T18:58:08.378Z,15.00
2018-10-07T19:00:44.501Z,14.90
2018-10-07T19:03:21.559Z,14.90
2018-10-07T19:05:58.237Z,14.90
2018-10-07T19:08:34.242Z,14.80
2018-10-07T19:11:10.596Z,14.80
2018-10-07T19:13:48.541Z,14.70
2018-10-07T19:16:23.721Z,14.70
2018-10-07T19:18:59.735Z,14.60
2018-10-07T19:21:35.153Z,14.50
2018-10-07T19:24:11.336Z,14.50
2018-10-07T19:26:47.333Z,14.50
2018-10-07T19:29:22.846Z,14.40
2018-10-07T19:31:58.169Z,14.40
2018-10-07T19:34:32.787Z,14.40
2018-10-07T19:37:08.486Z,14.40
2018-10-07T19:39:43.341Z,14.40
2018-10-07T19:42:17.691Z,14.30
2018-10-07T19:44:53.280Z,14.20
2018-10-07T19:47:28.835Z,14.20
2018-10-07T19:50:03.854Z,14.20
2018-10-07T19:52:38.696Z,14.10
2018-10-07T19:55:13.629Z,14.10
2018-10-07T19:57:48.230Z,14.10
2018-10-07T20:00:22.980Z,14.10
2018-10-07T20:02:57.618Z,14.00
2018-10-07T20:05:32.190Z,14.00
2018-10-07T20:08:06.974Z,14.00
2018-10-07T20:10:41.440Z,14.00
2018-10-07T20:13:16.224Z,13.90
2018-10-07T20:15:50.611Z,13.90
2018-10-07T20:18:25.419Z,13.90
2018-10-07T20:21:00.278Z,13.80
2018-10-07T20:23:35.343Z,13.80
2018-10-07T20:26:09.576Z,13.70
2018-10-07T20:28:44.325Z,13.70
2018-10-07T20:31:19.016Z,13.60
2018-10-07T20:33:53.419Z,13.60
2018-10-07T20:36:27.920Z,13.60
2018-10-07T20:39:02.719Z,13.60
2018-10-07T20:41:37.909Z,13.50
2018-10-07T20:44:12.190Z,13.50
2018-10-07T20:46:46.871Z,13.50
2018-10-07T20:49:21.192Z,13.40
2018-10-07T20:51:56.447Z,13.40
2018-10-07T20:54:32.419Z,13.30
2018-10-07T20:57:08.119Z,13.30
2018-10-07T20:59:43.678Z,13.30
2018-10-07T21:02:19.155Z,13.20
2018-10-07T21:04:54.006Z,13.20
2018-10-07T21:07:28.928Z,13.20
2018-10-07T21:10:03.714Z,13.20
2018-10-07T21:12:38.721Z,13.20
2018-10-07T21:15:14.365Z,13.10
2018-10-07T21:17:49.662Z,13.00
2018-10-07T21:20:24.704Z,13.10
2018-10-07T21:23:00.565Z,13.00
2018-10-07T21:25:35.760Z,13.00
2018-10-07T21:28:11.205Z,13.00
2018-10-07T21:30:46.589Z,12.90
2018-10-07T21:33:23.225Z,12.90
2018-10-07T21:35:58.401Z,12.90
2018-10-07T21:38:34.226Z,12.80
2018-10-07T21:41:08.512Z,12.80
2018-10-07T21:43:43.811Z,12.80
2018-10-07T21:46:18.921Z,12.80
2018-10-07T21:48:53.921Z,12.80
2018-10-07T21:51:29.729Z,12.70
2018-10-07T21:54:04.592Z,12.70
2018-10-07T21:56:39.642Z,12.70
2018-10-07T21:59:15.219Z,12.70
2018-10-07T22:01:50.216Z,12.70
2018-10-07T22:04:25.545Z,12.60
2018-10-07T22:07:00.325Z,12.60
2018-10-07T22:09:35.458Z,12.60
2018-10-07T22:12:10.388Z,12.60
2018-10-07T22:14:44.687Z,12.50
2018-10-07T22:17:19.484Z,12.50
2018-10-07T22:19:54.260Z,12.50
2018-10-07T22:22:29.020Z,12.40
2018-10-07T22:25:03.704Z,12.40
2018-10-07T22:27:38.243Z,12.40
2018-10-07T22:30:13.537Z,12.40
2018-10-07T22:32:48.445Z,12.40
2018-10-07T22:35:23.666Z,12.40
2018-10-07T22:37:57.986Z,12.40
2018-10-07T22:40:32.449Z,12.40
2018-10-07T22:43:07.070Z,12.40
2018-10-07T22:45:41.819Z,12.40
2018-10-07T22:48:16.343Z,12.30
2018-10-07T22:50:51.196Z,12.30
2018-10-07T22:53:25.502Z,12.30
2018-10-07T22:56:00.130Z,12.30
2018-10-07T22:58:34.825Z,12.30
2018-10-07T23:01:09.334Z,12.30
2018-10-07T23:03:44.346Z,12.20
2018-10-07T23:06:18.707Z,12.20
2018-10-07T23:08:53.210Z,12.20
2018-10-07T23:11:27.975Z,12.20
2018-10-07T23:14:02.659Z,12.20
2018-10-07T23:16:37.169Z,12.20
2018-10-07T23:19:11.822Z,12.30
2018-10-07T23:21:46.382Z,12.30
2018-10-07T23:24:21.020Z,12.30
2018-10-07T23:26:55.771Z,12.30
2018-10-07T23:29:30.339Z,12.30
2018-10-07T23:32:05.209Z,12.30
2018-10-07T23:34:39.957Z,12.30
2018-10-07T23:37:14.620Z,12.30
2018-10-07T23:39:49.383Z,12.30
2018-10-07T23:42:24.298Z,12.30
2018-10-07T23:44:58.751Z,12.20
2018-10-07T23:47:33.421Z,12.20
2018-10-07T23:50:07.956Z,12.30
2018-10-07T23:52:42.530Z,12.30
2018-10-07T23:55:17.265Z,12.30
2018-10-07T23:57:51.830Z,12.30
